createdAt,value
2022-12-04T04:16:30.883Z,27.07
2022-12-04T04:21:47.246Z,27.03
2022-12-04T04:26:51.338Z,29.93
2022-12-04T04:32:31.594Z,28.33
2022-12-04T04:38:24.583Z,27.67
2022-12-04T04:55:41.487Z,33.97
2022-12-04T05:00:59.359Z,34.87
2022-12-04T05:06:05.066Z,33.13
2022-12-04T05:11:07.685Z,32.57
2022-12-04T05:16:25.103Z,32.90
2022-12-04T05:21:50.865Z,27.60
2022-12-04T05:26:39.413Z,30.27
2022-12-04T05:31:55.380Z,30.83
2022-12-04T05:36:47.701Z,34.03
2022-12-04T05:41:32.178Z,44.67
2022-12-04T05:46:34.638Z,28.03
2022-12-04T05:51:25.124Z,36.43
2022-12-04T05:56:14.956Z,30.33
2022-12-04T06:00:58.952Z,36.60
2022-12-04T06:06:04.333Z,34.30
2022-12-04T06:10:53.900Z,28.43
2022-12-04T06:15:40.577Z,29.27
2022-12-04T06:20:40.955Z,41.50
2022-12-04T06:26:07.438Z,29.50
2022-12-04T06:30:52.949Z,35.90
2022-12-04T06:35:55.226Z,33.93
2022-12-04T06:40:42.626Z,31.40
2022-12-04T06:45:36.342Z,30.73
2022-12-04T06:50:33.679Z,33.07
2022-12-04T06:55:22.878Z,33.80
2022-12-04T07:00:15.039Z,31.63
2022-12-04T07:05:34.519Z,34.77
2022-12-04T07:10:22.947Z,36.50
2022-12-04T07:15:56.660Z,28.73
2022-12-04T07:20:47.798Z,32.97
2022-12-04T07:25:43.250Z,35.17
2022-12-04T07:31:22.420Z,38.73
2022-12-04T07:36:45.625Z,39.13
2022-12-04T07:41:50.628Z,41.07
2022-12-04T07:47:04.921Z,41.17
2022-12-04T07:52:15.706Z,36.70
2022-12-04T07:57:17.277Z,39.70
2022-12-04T08:02:35.595Z,43.43
2022-12-04T08:07:56.090Z,36.77
2022-12-04T08:13:18.046Z,33.37
2022-12-04T08:18:51.757Z,33.90
2022-12-04T08:23:52.881Z,35.67
2022-12-04T08:29:12.532Z,29.40
2022-12-04T08:34:08.168Z,32.30
2022-12-04T08:39:37.894Z,41.13
2022-12-04T08:44:43.421Z,33.33
2022-12-04T08:49:33.413Z,37.40
2022-12-04T08:54:21.936Z,39.50
2022-12-04T08:59:06.599Z,33.67
2022-12-04T09:03:58.332Z,34.70
2022-12-04T09:08:43.327Z,34.43
2022-12-04T09:13:34.021Z,32.80
2022-12-04T09:18:18.039Z,36.60
2022-12-04T09:23:35.702Z,32.20
2022-12-04T09:28:26.498Z,33.20
2022-12-04T09:33:29.462Z,35.30
2022-12-04T09:38:20.758Z,33.03
2022-12-04T09:43:24.080Z,32.57
2022-12-04T09:53:35.139Z,32.70
2022-12-04T09:58:22.870Z,32.97
2022-12-04T10:03:08.635Z,34.53
2022-12-04T10:14:32.236Z,31.03
2022-12-04T10:19:52.740Z,31.97
2022-12-04T13:24:25.798Z,31.57
2022-12-04T13:29:20.199Z,29.50
2022-12-04T13:34:39.246Z,27.90
2022-12-04T13:40:31.427Z,29.87
2022-12-04T13:45:48.418Z,31.60
2022-12-04T13:50:49.160Z,29.30
2022-12-04T13:55:39.927Z,32.50
2022-12-04T14:00:29.380Z,29.30
2022-12-04T14:05:16.177Z,25.57
2022-12-04T14:10:05.081Z,24.97
2022-12-04T14:15:04.209Z,23.87
2022-12-04T14:20:27.757Z,24.03
2022-12-04T14:25:49.106Z,24.07
2022-12-04T14:30:39.755Z,22.83
2022-12-04T14:35:41.845Z,21.97
2022-12-04T14:40:28.378Z,26.17
2022-12-04T14:45:46.378Z,30.17
2022-12-04T14:50:50.234Z,31.30
2022-12-04T14:56:12.162Z,31.43
2022-12-04T15:01:15.318Z,32.87
2022-12-04T15:06:17.284Z,31.60
2022-12-04T15:11:25.766Z,34.13
2022-12-04T15:16:15.114Z,32.50
2022-12-04T15:21:04.446Z,33.03
2022-12-04T15:26:19.020Z,33.40
2022-12-04T15:31:12.260Z,36.80
2022-12-04T15:36:42.558Z,35.20
2022-12-04T15:41:42.930Z,31.47
2022-12-04T15:46:35.712Z,32.93
2022-12-04T15:51:23.389Z,39.07
2022-12-04T15:56:27.935Z,35.77
2022-12-04T16:01:29.737Z,34.17
2022-12-04T16:06:21.272Z,35.57
2022-12-04T16:11:24.480Z,36.47
2022-12-04T16:16:14.040Z,35.23
2022-12-04T16:20:59.598Z,36.27
2022-12-04T16:25:51.051Z,37.77
2022-12-04T16:30:51.327Z,36.77
2022-12-04T16:41:48.202Z,34.67
2022-12-04T16:46:39.232Z,33.47
2022-12-04T16:51:25.118Z,32.90
2022-12-04T16:56:12.762Z,32.57
2022-12-04T17:01:01.389Z,32.03
2022-12-04T17:05:48.006Z,30.50
2022-12-04T17:10:35.799Z,31.77
2022-12-04T17:15:23.766Z,32.03
2022-12-04T17:20:14.823Z,35.23
2022-12-04T17:24:59.385Z,33.67
2022-12-04T17:29:49.498Z,33.70
2022-12-04T17:34:36.600Z,33.20
2022-12-04T17:39:25.040Z,31.63
2022-12-04T17:44:14.994Z,32.63
2022-12-04T17:49:48.137Z,29.13
2022-12-04T17:54:36.721Z,28.03
2022-12-04T17:59:36.172Z,30.03
2022-12-04T18:04:26.736Z,29.43
2022-12-04T18:09:15.511Z,26.47
2022-12-04T18:14:15.693Z,27.33
2022-12-04T18:19:12.637Z,25.50
2022-12-04T18:24:25.598Z,25.80
2022-12-04T18:29:29.264Z,23.93
2022-12-04T18:34:49.334Z,19.40
2022-12-04T18:39:56.411Z,15.50
2022-12-04T18:44:45.857Z,16.63
2022-12-04T18:49:30.071Z,15.90
2022-12-04T18:54:34.225Z,14.93
2022-12-04T18:59:39.244Z,14.37
2022-12-04T19:04:42.221Z,15.03
2022-12-04T19:15:37.565Z,17.27
2022-12-04T19:20:47.356Z,13.87
2022-12-04T19:30:40.758Z,13.63
2022-12-04T19:36:23.684Z,14.33
2022-12-04T19:41:15.260Z,14.37
2022-12-04T19:46:07.119Z,13.87
2022-12-04T19:50:54.246Z,14.20
2022-12-04T19:55:52.937Z,14.47
2022-12-04T20:01:03.048Z,14.50
2022-12-04T20:05:49.787Z,14.40
2022-12-04T20:11:22.714Z,14.97
2022-12-04T20:17:04.948Z,14.87
2022-12-04T20:22:39.216Z,13.97
2022-12-04T20:38:21.227Z,13.17
2022-12-04T20:43:10.458Z,15.33
2022-12-04T20:53:52.750Z,13.67
2022-12-04T20:59:09.693Z,14.30
2022-12-04T21:04:57.870Z,14.13
2022-12-04T21:10:51.040Z,14.40
2022-12-04T21:16:10.807Z,13.53
2022-12-04T21:21:31.291Z,12.90
2022-12-04T21:27:05.865Z,14.77
2022-12-04T21:38:38.340Z,13.50
2022-12-04T21:44:30.444Z,12.90
2022-12-04T21:50:18.671Z,12.63
2022-12-04T21:56:11.982Z,13.80
2022-12-04T22:00:59.046Z,12.60
2022-12-04T22:06:01.748Z,11.77
2022-12-04T22:11:22.489Z,12.33
2022-12-04T22:16:15.532Z,10.47
2022-12-04T22:21:01.638Z,10.20
2022-12-04T22:26:21.548Z,10.67
2022-12-04T22:31:56.648Z,9.97
2022-12-04T22:36:45.503Z,9.67
2022-12-04T22:42:24.782Z,9.00
2022-12-04T22:47:41.084Z,8.80
2022-12-04T22:52:42.199Z,8.53
2022-12-04T22:57:46.767Z,9.67
2022-12-04T23:08:07.814Z,10.90
2022-12-04T23:12:59.064Z,10.83
2022-12-04T23:17:47.321Z,11.83
2022-12-04T23:22:34.890Z,11.10
2022-12-04T23:27:26.939Z,12.57
2022-12-04T23:32:14.461Z,12.03
2022-12-04T23:36:58.390Z,11.67
2022-12-04T23:41:46.108Z,12.17
2022-12-04T23:46:56.502Z,13.83
2022-12-04T23:51:52.896Z,13.63
2022-12-04T23:56:43.850Z,13.70
